Time;durP1;ratioP1;P1;durP2;ratioP2;P2;SDS_P1;SDS_P2;PMS_P1;PMS_P2;Temp;Humidity;BMP_temperature;BMP_pressure;BME280_temperature;BME280_humidity;BME280_pressure;Samples;Min_cycle;Max_cycle;Signal;HPM_P1;HPM_P2
2024/01/15 00:00:48;;;;;;;23.47;13.33;;;5.10;50.70;;;;;;4964404;28;20267;-58
2024/01/15 00:03:13;;;;;;;24.07;11.47;;;5.10;50.80;;;;;;4968573;28;20200;-61
2024/01/15 00:05:39;;;;;;;25.83;12.93;;;5.10;50.90;;;;;;4967773;28;20458;-62
2024/01/15 00:08:05;;;;;;;23.37;13.00;;;5.20;50.90;;;;;;4968981;28;20248;-57
2024/01/15 00:10:30;;;;;;;26.27;12.43;;;5.20;50.80;;;;;;4969279;28;20187;-59
2024/01/15 00:12:56;;;;;;;26.63;14.43;;;5.10;50.80;;;;;;4967851;28;20187;-54
2024/01/15 00:15:22;;;;;;;23.00;12.77;;;5.10;50.80;;;;;;4966389;28;20192;-60
2024/01/15 00:17:47;;;;;;;23.80;12.57;;;5.10;50.80;;;;;;4968100;28;20191;-55
2024/01/15 00:20:13;;;;;;;23.00;12.90;;;5.10;50.80;;;;;;4968418;28;20447;-59
2024/01/15 00:22:39;;;;;;;21.73;11.80;;;5.10;50.70;;;;;;4965308;28;20211;-57
2024/01/15 00:25:05;;;;;;;24.13;12.63;;;5.10;50.50;;;;;;4968512;28;20274;-55
2024/01/15 00:27:30;;;;;;;26.33;12.90;;;5.10;50.50;;;;;;4978796;28;20187;-54
2024/01/15 00:29:56;;;;;;;22.93;12.07;;;5.10;50.50;;;;;;4970194;28;20191;-56
2024/01/15 00:32:21;;;;;;;25.50;14.30;;;5.10;50.60;;;;;;4967002;28;20282;-59
2024/01/15 00:34:47;;;;;;;27.10;13.70;;;5.10;50.60;;;;;;4966316;28;20217;-58
2024/01/15 00:37:13;;;;;;;29.27;13.40;;;5.10;50.50;;;;;;4966779;28;20227;-55
2024/01/15 00:39:38;;;;;;;27.40;13.87;;;5.00;50.40;;;;;;4965841;28;20188;-54
2024/01/15 00:42:04;;;;;;;27.73;14.53;;;5.00;50.40;;;;;;4993760;28;20246;-56
2024/01/15 00:44:30;;;;;;;32.13;14.90;;;5.00;50.40;;;;;;4969577;28;20655;-60
2024/01/15 00:46:55;;;;;;;25.10;13.13;;;5.00;50.50;;;;;;4965427;28;20459;-58
2024/01/15 00:49:21;;;;;;;29.13;15.13;;;5.00;50.40;;;;;;4965533;28;20202;-56
2024/01/15 00:51:47;;;;;;;27.53;14.83;;;5.00;50.40;;;;;;4965044;28;20248;-58
2024/01/15 00:54:13;;;;;;;31.20;14.73;;;5.00;50.40;;;;;;4964224;28;20286;-57
2024/01/15 00:56:39;;;;;;;28.30;15.07;;;5.00;50.40;;;;;;4966574;28;20565;-53
2024/01/15 00:59:04;;;;;;;24.40;13.27;;;5.00;50.50;;;;;;4968129;28;20195;-57
2024/01/15 01:01:30;;;;;;;27.07;14.00;;;5.00;50.60;;;;;;4966100;28;20203;-60
2024/01/15 01:03:56;;;;;;;26.27;14.33;;;5.00;50.60;;;;;;4968092;28;20213;-58
2024/01/15 01:06:21;;;;;;;34.77;15.23;;;5.00;50.80;;;;;;4963203;28;20257;-56
2024/01/15 01:08:47;;;;;;;31.47;15.17;;;4.90;50.80;;;;;;4967818;28;20195;-59
2024/01/15 01:11:14;;;;;;;29.97;14.70;;;4.90;50.80;;;;;;4966431;28;20203;-58
2024/01/15 01:13:39;;;;;;;31.90;15.47;;;4.90;50.90;;;;;;4964647;28;20195;-56
2024/01/15 01:16:05;;;;;;;31.03;15.13;;;4.80;51.00;;;;;;4965922;28;20989;-56
2024/01/15 01:18:30;;;;;;;26.63;14.70;;;4.70;51.30;;;;;;4966119;28;20639;-57
2024/01/15 01:20:56;;;;;;;32.87;16.40;;;4.80;51.50;;;;;;4966877;28;20183;-59
2024/01/15 01:23:21;;;;;;;30.43;15.73;;;4.80;51.20;;;;;;4965979;28;20195;-56
2024/01/15 01:25:47;;;;;;;29.67;15.33;;;4.70;51.40;;;;;;4964506;28;20218;-58
2024/01/15 01:28:12;;;;;;;23.27;13.97;;;4.70;51.50;;;;;;4966060;28;20202;-56
2024/01/15 01:30:38;;;;;;;25.20;13.20;;;4.70;51.30;;;;;;4964665;28;20278;-56
2024/01/15 01:33:04;;;;;;;28.83;12.97;;;4.50;51.70;;;;;;4965901;28;20180;-53
2024/01/15 01:35:29;;;;;;;30.27;15.50;;;4.60;52.00;;;;;;4973484;28;20208;-56
2024/01/15 01:37:55;;;;;;;28.73;14.40;;;4.60;51.80;;;;;;4967566;28;20192;-56
2024/01/15 01:40:20;;;;;;;30.40;14.90;;;4.30;52.30;;;;;;4966847;28;20282;-60
2024/01/15 01:42:46;;;;;;;29.37;13.00;;;4.30;52.60;;;;;;4965913;28;20187;-59
2024/01/15 01:45:11;;;;;;;30.20;14.70;;;4.40;52.60;;;;;;4965233;28;20669;-56
2024/01/15 01:47:38;;;;;;;31.87;13.77;;;4.40;52.40;;;;;;4968268;28;20658;-55
2024/01/15 01:50:04;;;;;;;30.23;14.20;;;4.40;52.30;;;;;;4964486;28;20647;-58
2024/01/15 01:52:31;;;;;;;31.47;15.13;;;4.40;52.30;;;;;;4970386;28;20995;-56
2024/01/15 01:54:58;;;;;;;32.33;14.47;;;4.40;52.40;;;;;;4964365;28;20501;-58
2024/01/15 01:57:24;;;;;;;30.23;14.43;;;4.50;52.30;;;;;;4969541;28;20498;-55
2024/01/15 01:59:50;;;;;;;27.03;13.83;;;4.60;52.00;;;;;;4966776;28;20457;-56
2024/01/15 02:02:16;;;;;;;28.03;13.83;;;4.60;51.90;;;;;;4965065;28;20206;-59
2024/01/15 02:04:43;;;;;;;27.87;14.60;;;4.60;51.90;;;;;;4963918;28;20442;-54
2024/01/15 02:07:09;;;;;;;29.57;14.20;;;4.70;51.90;;;;;;4965418;28;20290;-54
2024/01/15 02:09:35;;;;;;;32.47;13.33;;;4.80;51.70;;;;;;4984852;28;20865;-58
2024/01/15 02:12:01;;;;;;;29.40;13.90;;;4.80;51.50;;;;;;4967984;28;20438;-59
2024/01/15 02:14:26;;;;;;;27.07;12.73;;;4.80;51.60;;;;;;4979874;28;20290;-56
2024/01/15 02:16:52;;;;;;;26.77;13.53;;;4.80;51.50;;;;;;4963101;28;20215;-58
2024/01/15 02:19:18;;;;;;;28.07;13.63;;;4.90;51.40;;;;;;4982157;28;20278;-57
2024/01/15 02:21:44;;;;;;;25.97;14.47;;;4.90;51.40;;;;;;4965351;28;20654;-55
2024/01/15 02:24:10;;;;;;;28.17;15.10;;;5.00;51.50;;;;;;4963998;28;20526;-57
2024/01/15 02:26:38;;;;;;;30.93;15.77;;;5.00;51.30;;;;;;4966788;28;20495;-57
2024/01/15 02:29:06;;;;;;;33.27;16.60;;;5.10;51.30;;;;;;4967945;28;20856;-58
2024/01/15 02:31:31;;;;;;;28.87;14.50;;;5.20;51.20;;;;;;4970938;28;20438;-59
2024/01/15 02:33:57;;;;;;;23.03;13.10;;;5.20;51.00;;;;;;4971929;28;20465;-54
2024/01/15 02:36:23;;;;;;;27.70;15.07;;;5.20;51.00;;;;;;4967805;28;20595;-56
2024/01/15 02:38:48;;;;;;;24.80;13.50;;;5.20;51.20;;;;;;4964747;28;20472;-56
2024/01/15 02:41:14;;;;;;;22.90;10.20;;;5.20;51.10;;;;;;4964406;28;20191;-54
2024/01/15 02:43:41;;;;;;;19.67;10.00;;;5.20;51.30;;;;;;4964682;28;20184;-56
2024/01/15 02:46:06;;;;;;;16.97;9.70;;;5.00;51.50;;;;;;4962278;28;20326;-52
2024/01/15 02:48:34;;;;;;;16.10;9.37;;;5.10;51.90;;;;;;4975963;28;20521;-56
2024/01/15 02:51:00;;;;;;;16.70;9.70;;;5.10;52.00;;;;;;4965558;28;20191;-55
2024/01/15 02:53:26;;;;;;;18.27;8.37;;;5.20;51.70;;;;;;4965134;28;20449;-56
2024/01/15 02:55:51;;;;;;;20.33;8.37;;;5.30;51.70;;;;;;4982177;28;20517;-54
2024/01/15 02:58:17;;;;;;;17.27;7.83;;;5.10;52.10;;;;;;4969698;28;20195;-56
2024/01/15 03:00:43;;;;;;;16.97;8.43;;;5.30;52.00;;;;;;4978995;28;20662;-56
2024/01/15 03:03:09;;;;;;;16.90;8.40;;;5.40;51.90;;;;;;4968833;28;20187;-54
2024/01/15 03:05:34;;;;;;;14.90;7.43;;;5.40;51.60;;;;;;4969008;28;20462;-57
2024/01/15 03:08:00;;;;;;;14.47;8.07;;;5.50;51.40;;;;;;4974362;28;20605;-55
2024/01/15 03:10:25;;;;;;;15.23;8.13;;;5.40;51.50;;;;;;4969970;28;20737;-53
2024/01/15 03:12:51;;;;;;;15.10;8.20;;;5.50;51.50;;;;;;4975754;28;20758;-57
2024/01/15 03:15:18;;;;;;;15.50;7.53;;;5.50;51.30;;;;;;4968213;28;20195;-56
2024/01/15 03:17:43;;;;;;;14.87;7.10;;;5.50;51.20;;;;;;4969855;28;22279;-55
2024/01/15 03:20:10;;;;;;;17.10;7.93;;;5.50;51.30;;;;;;4968613;28;20533;-56
2024/01/15 03:22:35;;;;;;;15.93;8.50;;;5.60;51.40;;;;;;4968088;28;20279;-55
2024/01/15 03:25:01;;;;;;;15.37;7.20;;;5.60;51.20;;;;;;4968125;28;20520;-55
2024/01/15 03:27:26;;;;;;;14.37;6.90;;;5.70;51.10;;;;;;4966359;28;20261;-57
2024/01/15 03:29:52;;;;;;;11.83;6.27;;;5.70;51.00;;;;;;4968513;28;20194;-57
2024/01/15 03:32:19;;;;;;;12.70;6.70;;;5.70;51.00;;;;;;4967247;28;20196;-55
2024/01/15 03:34:45;;;;;;;10.53;6.73;;;5.60;51.10;;;;;;4967402;28;20188;-56
2024/01/15 03:37:11;;;;;;;13.10;7.70;;;5.60;51.10;;;;;;4966361;28;20474;-57
2024/01/15 03:39:36;;;;;;;15.60;7.37;;;5.70;51.10;;;;;;4967929;28;20558;-57
2024/01/15 03:42:02;;;;;;;18.27;9.17;;;5.70;50.90;;;;;;4966011;28;20199;-55
2024/01/15 03:44:28;;;;;;;14.37;8.20;;;5.80;50.80;;;;;;4967709;28;20241;-57
2024/01/15 03:46:53;;;;;;;12.57;7.27;;;5.80;50.50;;;;;;4966585;28;20253;-56
2024/01/15 03:49:19;;;;;;;15.30;7.80;;;5.80;50.40;;;;;;4977887;28;20548;-54
2024/01/15 03:51:45;;;;;;;15.10;8.70;;;5.80;50.50;;;;;;4966656;28;20193;-57
2024/01/15 03:54:10;;;;;;;13.67;7.23;;;5.80;50.50;;;;;;4966806;28;20172;-58
2024/01/15 03:56:36;;;;;;;11.43;7.33;;;5.80;50.50;;;;;;4965023;28;20312;-54
2024/01/15 03:59:02;;;;;;;11.37;7.30;;;5.80;50.60;;;;;;4973830;28;20553;-56
2024/01/15 04:01:27;;;;;;;12.70;7.70;;;5.90;50.60;;;;;;4967201;28;20211;-55
2024/01/15 04:03:53;;;;;;;15.70;7.63;;;5.90;50.60;;;;;;4967434;28;20195;-55
2024/01/15 04:06:18;;;;;;;13.60;7.67;;;5.80;50.50;;;;;;4979178;28;20218;-55
2024/01/15 04:08:44;;;;;;;16.00;7.73;;;5.80;50.50;;;;;;4967880;28;20187;-56
2024/01/15 04:11:09;;;;;;;10.20;6.60;;;5.80;50.60;;;;;;4967604;28;20511;-55
2024/01/15 04:13:36;;;;;;;16.03;8.17;;;5.80;50.70;;;;;;4967413;28;20200;-56
2024/01/15 04:16:01;;;;;;;11.80;6.80;;;5.80;50.80;;;;;;4964495;28;20226;-56
2024/01/15 04:18:27;;;;;;;12.90;8.17;;;5.80;50.90;;;;;;4967384;28;21004;-56
2024/01/15 04:20:53;;;;;;;15.30;7.57;;;5.80;50.80;;;;;;4966615;28;20667;-57
2024/01/15 04:23:19;;;;;;;12.37;7.60;;;5.80;50.60;;;;;;4965349;28;20294;-53
2024/01/15 04:25:45;;;;;;;13.17;7.17;;;5.80;50.50;;;;;;4963368;28;20315;-54
2024/01/15 04:28:11;;;;;;;12.40;7.20;;;5.90;51.10;;;;;;4968341;28;20434;-54
2024/01/15 04:30:37;;;;;;;13.13;8.60;;;5.90;50.60;;;;;;4970995;28;20972;-56
2024/01/15 04:33:02;;;;;;;14.00;7.63;;;5.80;50.60;;;;;;4965927;28;20447;-55
2024/01/15 04:35:28;;;;;;;13.77;7.23;;;5.90;50.70;;;;;;4965743;28;20218;-57
2024/01/15 04:37:54;;;;;;;15.50;8.10;;;5.90;50.70;;;;;;4967044;28;20625;-58
2024/01/15 04:40:19;;;;;;;13.27;7.57;;;5.90;50.70;;;;;;4965447;28;20585;-58
2024/01/15 04:42:45;;;;;;;15.37;7.13;;;5.90;50.80;;;;;;4966085;28;20565;-56
2024/01/15 04:45:11;;;;;;;11.37;7.10;;;6.00;50.80;;;;;;4966288;28;20678;-55
2024/01/15 04:47:37;;;;;;;15.53;7.20;;;5.90;50.60;;;;;;4964908;28;20443;-57
2024/01/15 04:50:04;;;;;;;12.80;7.80;;;5.90;50.70;;;;;;4966060;28;20439;-56
2024/01/15 04:52:30;;;;;;;11.93;6.70;;;5.90;50.70;;;;;;4965607;28;20221;-56
2024/01/15 04:54:55;;;;;;;12.30;6.60;;;6.00;50.80;;;;;;4977398;28;20537;-57
2024/01/15 04:57:21;;;;;;;14.40;7.43;;;6.00;50.70;;;;;;4961714;28;20236;-57
2024/01/15 04:59:46;;;;;;;14.27;7.33;;;5.90;50.60;;;;;;4966744;28;20549;-55
2024/01/15 05:02:13;;;;;;;16.03;8.83;;;5.80;50.90;;;;;;4963102;28;20570;-56
2024/01/15 05:04:39;;;;;;;16.10;8.33;;;5.80;51.10;;;;;;4969499;28;20199;-55
2024/01/15 05:07:05;;;;;;;15.53;8.30;;;5.80;51.10;;;;;;4967750;28;20550;-54
2024/01/15 05:09:30;;;;;;;15.70;7.00;;;5.80;51.10;;;;;;4966954;28;20518;-56
2024/01/15 05:11:56;;;;;;;13.10;7.83;;;5.80;51.20;;;;;;4967120;28;20187;-57
2024/01/15 05:14:21;;;;;;;12.60;6.73;;;5.90;51.20;;;;;;4971817;28;20192;-53
2024/01/15 05:16:48;;;;;;;14.87;7.30;;;5.90;51.20;;;;;;4964503;28;20223;-57
2024/01/15 05:19:13;;;;;;;11.40;6.87;;;5.90;51.20;;;;;;4966806;28;20280;-57
2024/01/15 05:21:39;;;;;;;15.87;7.47;;;6.00;51.10;;;;;;4965999;28;20483;-54
2024/01/15 05:24:05;;;;;;;12.50;6.10;;;6.00;51.10;;;;;;4966321;28;20191;-58
2024/01/15 05:26:30;;;;;;;13.00;6.93;;;6.00;51.00;;;;;;4965026;28;20203;-56
2024/01/15 05:28:56;;;;;;;15.10;5.80;;;6.00;51.10;;;;;;4967831;28;20290;-55
2024/01/15 05:31:21;;;;;;;13.97;7.60;;;6.00;51.10;;;;;;4967275;28;20188;-56
2024/01/15 05:33:47;;;;;;;11.27;6.60;;;6.10;51.00;;;;;;4966994;28;20270;-57
2024/01/15 05:36:12;;;;;;;11.23;6.63;;;6.10;50.90;;;;;;4965465;28;20219;-56
2024/01/15 05:38:38;;;;;;;13.57;6.03;;;6.10;51.10;;;;;;4964339;28;20674;-57
2024/01/15 05:41:05;;;;;;;11.80;6.73;;;6.10;51.10;;;;;;4966598;28;20187;-57
2024/01/15 05:43:30;;;;;;;15.87;7.10;;;5.90;51.20;;;;;;4962683;28;20187;-55
2024/01/15 05:45:56;;;;;;;13.67;7.50;;;5.70;51.60;;;;;;4962790;28;20528;-56
2024/01/15 05:48:21;;;;;;;10.53;6.50;;;5.60;52.10;;;;;;4966790;28;20203;-55
2024/01/15 05:50:47;;;;;;;14.33;7.63;;;5.70;52.10;;;;;;4966722;28;20215;-56
2024/01/15 05:53:13;;;;;;;8.97;5.40;;;5.70;51.90;;;;;;4963321;28;20203;-55
2024/01/15 05:55:38;;;;;;;8.33;5.50;;;5.50;52.40;;;;;;4964700;28;20761;-57
2024/01/15 05:58:04;;;;;;;10.57;6.47;;;5.40;52.60;;;;;;4965683;28;20183;-57
2024/01/15 06:00:30;;;;;;;14.40;5.83;;;5.60;52.60;;;;;;4966817;28;20219;-54
2024/01/15 06:02:55;;;;;;;9.50;6.00;;;5.60;52.50;;;;;;4964042;28;20474;-56
2024/01/15 06:05:21;;;;;;;12.90;7.50;;;5.20;53.10;;;;;;4965033;28;20199;-57
2024/01/15 06:07:47;;;;;;;8.30;5.30;;;5.30;53.30;;;;;;4963089;28;20187;-55
2024/01/15 06:10:12;;;;;;;14.07;7.07;;;5.60;52.90;;;;;;4976022;28;20241;-55
2024/01/15 06:12:38;;;;;;;11.07;6.43;;;5.70;52.70;;;;;;4966444;28;20180;-56
2024/01/15 06:15:04;;;;;;;11.87;6.30;;;5.80;52.30;;;;;;4964852;28;20207;-58
2024/01/15 06:17:29;;;;;;;9.27;6.17;;;5.90;52.10;;;;;;4965201;28;20303;-54
2024/01/15 06:19:55;;;;;;;13.27;7.03;;;6.00;52.10;;;;;;4966559;28;20443;-59
2024/01/15 06:22:20;;;;;;;9.80;6.50;;;6.10;53.80;;;;;;4973153;28;20302;-57
2024/01/15 06:24:46;;;;;;;9.37;5.87;;;6.40;54.50;;;;;;4964099;28;20191;-56
2024/01/15 06:27:11;;;;;;;10.27;6.37;;;6.80;54.10;;;;;;4962525;28;20242;-57
2024/01/15 06:29:38;;;;;;;13.13;7.00;;;7.00;53.30;;;;;;4971213;28;20195;-56
2024/01/15 06:32:04;;;;;;;9.63;6.27;;;7.20;52.00;;;;;;4968289;28;20187;-57
2024/01/15 06:34:30;;;;;;;12.37;6.80;;;7.20;50.40;;;;;;4967098;28;20976;-55
2024/01/15 06:36:55;;;;;;;10.13;6.70;;;7.10;49.20;;;;;;4964118;28;20481;-57
2024/01/15 06:39:21;;;;;;;11.47;6.40;;;6.90;49.30;;;;;;4973426;28;20850;-57
2024/01/15 06:41:46;;;;;;;9.27;6.20;;;6.70;49.50;;;;;;4974529;28;20191;-56
2024/01/15 06:44:15;;;;;;;13.83;7.40;;;6.70;49.80;;;;;;4990010;28;20199;-55
2024/01/15 06:46:44;;;;;;;11.40;6.10;;;6.60;50.10;;;;;;4965239;28;20230;-57
2024/01/15 06:49:10;;;;;;;9.90;5.83;;;6.40;50.20;;;;;;4970340;28;20496;-57
2024/01/15 06:51:36;;;;;;;10.03;6.20;;;6.40;50.40;;;;;;4969512;28;21205;-56
2024/01/15 06:54:02;;;;;;;12.03;6.70;;;6.50;50.30;;;;;;4969793;28;20685;-56
2024/01/15 06:56:27;;;;;;;13.33;7.80;;;6.50;50.30;;;;;;4967656;28;20997;-57
2024/01/15 06:58:53;;;;;;;11.90;7.57;;;6.60;50.20;;;;;;4969149;28;20188;-56
2024/01/15 07:01:18;;;;;;;9.40;6.20;;;6.50;50.40;;;;;;4969507;28;20191;-55
2024/01/15 07:03:44;;;;;;;14.17;8.17;;;6.30;50.30;;;;;;4969185;28;20283;-57
2024/01/15 07:06:10;;;;;;;9.33;6.13;;;6.30;50.50;;;;;;4967474;28;20579;-56
2024/01/15 07:08:36;;;;;;;12.87;7.70;;;6.20;50.90;;;;;;4970142;28;20203;-55
2024/01/15 07:11:04;;;;;;;12.07;6.30;;;6.00;51.20;;;;;;4967564;28;20815;-53
2024/01/15 07:13:30;;;;;;;11.57;7.07;;;6.00;51.60;;;;;;4970359;28;20244;-55
2024/01/15 07:15:55;;;;;;;11.37;6.63;;;6.10;51.50;;;;;;4968641;28;20490;-56
2024/01/15 07:18:21;;;;;;;11.00;7.07;;;6.30;51.20;;;;;;4970375;28;20188;-56
2024/01/15 07:20:46;;;;;;;11.97;7.40;;;6.40;50.80;;;;;;4968467;28;20192;-57
2024/01/15 07:23:12;;;;;;;9.70;6.43;;;6.60;50.70;;;;;;4969711;28;20218;-56
2024/01/15 07:25:37;;;;;;;10.27;5.57;;;6.50;50.50;;;;;;4967106;28;20230;-57
2024/01/15 07:28:03;;;;;;;10.83;6.63;;;6.40;50.50;;;;;;4970187;28;20190;-57
2024/01/15 07:30:29;;;;;;;10.37;6.30;;;6.30;50.80;;;;;;4968726;28;20175;-56
2024/01/15 07:32:55;;;;;;;12.70;7.17;;;6.40;50.80;;;;;;4968348;28;21398;-54
2024/01/15 07:35:20;;;;;;;10.40;6.37;;;6.60;50.60;;;;;;4967316;28;20187;-55
2024/01/15 07:37:46;;;;;;;10.83;6.40;;;6.50;50.40;;;;;;4969544;28;20720;-53
2024/01/15 07:40:12;;;;;;;13.40;7.87;;;6.60;50.20;;;;;;4970144;28;20450;-56
2024/01/15 07:42:38;;;;;;;14.83;7.70;;;6.70;50.00;;;;;;4967189;28;20240;-56
2024/01/15 07:45:04;;;;;;;12.47;7.30;;;6.60;50.10;;;;;;4962246;28;20184;-55
2024/01/15 07:47:30;;;;;;;10.90;6.63;;;6.70;50.20;;;;;;4964203;28;20458;-57
2024/01/15 07:49:56;;;;;;;11.93;6.93;;;6.80;50.00;;;;;;4967698;28;21000;-56
2024/01/15 07:52:21;;;;;;;11.13;7.03;;;6.70;49.80;;;;;;4976219;28;20196;-57
2024/01/15 07:54:47;;;;;;;11.40;5.80;;;6.70;50.10;;;;;;4963445;28;20481;-56
2024/01/15 07:57:13;;;;;;;9.40;5.83;;;6.60;50.00;;;;;;4964004;28;20874;-57
2024/01/15 07:59:39;;;;;;;16.80;7.03;;;6.60;49.80;;;;;;4965202;28;20544;-58
2024/01/15 08:02:04;;;;;;;16.00;5.90;;;6.40;50.10;;;;;;4958501;28;20450;-57
2024/01/15 08:04:30;;;;;;;10.87;6.70;;;6.30;50.10;;;;;;4964321;28;20179;-57
2024/01/15 08:06:56;;;;;;;8.20;5.47;;;6.00;49.80;;;;;;4963536;28;20246;-57
2024/01/15 08:09:22;;;;;;;16.90;5.67;;;5.80;50.50;;;;;;4963207;28;20199;-58
2024/01/15 08:11:49;;;;;;;12.00;6.23;;;5.90;50.70;;;;;;4971942;28;20453;-55
2024/01/15 08:14:15;;;;;;;9.27;6.40;;;5.90;50.70;;;;;;4964615;28;20277;-56
2024/01/15 08:16:40;;;;;;;7.77;5.40;;;6.00;50.40;;;;;;4965359;28;20619;-58
2024/01/15 08:19:06;;;;;;;7.93;5.37;;;6.10;50.10;;;;;;4965227;28;20454;-58
2024/01/15 08:21:32;;;;;;;8.07;5.03;;;5.80;50.00;;;;;;4965590;28;20184;-58
2024/01/15 08:24:02;;;;;;;10.03;5.33;;;5.80;50.60;;;;;;4965088;28;20207;-58
2024/01/15 08:26:28;;;;;;;8.87;5.30;;;5.80;50.50;;;;;;4963738;28;20822;-58
2024/01/15 08:28:54;;;;;;;9.90;5.43;;;6.00;50.20;;;;;;4963875;28;20568;-58
2024/01/15 08:31:20;;;;;;;10.27;5.63;;;6.10;49.90;;;;;;4973923;28;20915;-56
2024/01/15 08:33:45;;;;;;;8.90;5.57;;;6.10;49.80;;;;;;4976216;28;20206;-58
2024/01/15 08:36:11;;;;;;;9.73;5.13;;;6.20;49.50;;;;;;4967378;28;20361;-58
2024/01/15 08:38:37;;;;;;;10.67;5.90;;;6.30;49.30;;;;;;4968837;28;20431;-57
2024/01/15 08:41:03;;;;;;;11.57;5.20;;;6.30;49.20;;;;;;4965125;28;20435;-56
2024/01/15 08:43:29;;;;;;;9.47;5.77;;;6.40;49.10;;;;;;4964074;28;20183;-57
2024/01/15 08:45:55;;;;;;;12.90;5.73;;;6.40;48.70;;;;;;4974780;28;20563;-57
2024/01/15 08:48:20;;;;;;;7.87;5.53;;;6.30;48.90;;;;;;4966710;28;20454;-58
2024/01/15 08:50:46;;;;;;;7.77;4.80;;;6.30;49.10;;;;;;4966186;28;20195;-56
2024/01/15 08:53:12;;;;;;;10.43;6.03;;;6.20;48.90;;;;;;4966572;28;20274;-57
2024/01/15 08:55:38;;;;;;;6.83;4.80;;;5.90;49.10;;;;;;4969678;28;20260;-56
2024/01/15 08:58:04;;;;;;;9.67;5.70;;;5.70;49.60;;;;;;4967073;28;20455;-57
2024/01/15 09:00:30;;;;;;;9.23;5.30;;;5.80;49.70;;;;;;4965091;28;20679;-57
2024/01/15 09:02:56;;;;;;;11.83;6.43;;;5.80;49.90;;;;;;4965246;28;20533;-57
2024/01/15 09:05:22;;;;;;;10.83;5.03;;;6.00;49.80;;;;;;4965557;28;20476;-57
2024/01/15 09:07:48;;;;;;;10.43;6.00;;;6.00;49.40;;;;;;4967930;28;21170;-57
2024/01/15 09:10:14;;;;;;;7.77;5.67;;;6.00;49.50;;;;;;4966985;28;20211;-56
2024/01/15 09:12:40;;;;;;;18.37;8.50;;;5.70;49.50;;;;;;4958786;28;20233;-58
2024/01/15 09:15:06;;;;;;;13.30;7.27;;;5.80;49.80;;;;;;4971903;28;20459;-59
2024/01/15 09:17:34;;;;;;;10.50;6.20;;;5.90;49.70;;;;;;4970376;28;20482;-57
2024/01/15 09:20:00;;;;;;;11.47;6.10;;;6.00;49.50;;;;;;4974865;28;20431;-57
2024/01/15 09:22:26;;;;;;;14.50;7.23;;;6.20;49.30;;;;;;4964824;28;20454;-57
2024/01/15 09:24:52;;;;;;;10.67;6.00;;;6.30;48.70;;;;;;4966992;28;20427;-58
2024/01/15 09:27:17;;;;;;;11.53;5.80;;;6.30;48.70;;;;;;4962488;28;20309;-59
2024/01/15 09:29:45;;;;;;;15.30;6.10;;;6.30;48.60;;;;;;4969719;28;20187;-60
2024/01/15 09:32:11;;;;;;;6.90;5.07;;;6.30;48.50;;;;;;4983328;28;20191;-57
2024/01/15 09:34:37;;;;;;;10.47;5.23;;;6.20;48.50;;;;;;4974136;28;20427;-60
2024/01/15 09:37:04;;;;;;;12.23;5.10;;;6.10;48.70;;;;;;4966483;28;21050;-58
2024/01/15 09:39:30;;;;;;;11.30;5.13;;;6.00;48.60;;;;;;4975872;28;20262;-60
2024/01/15 09:41:56;;;;;;;12.03;5.20;;;5.80;49.00;;;;;;4970453;28;20529;-58
2024/01/15 09:44:22;;;;;;;6.53;4.67;;;6.10;49.20;;;;;;4966873;28;20526;-60
2024/01/15 09:46:50;;;;;;;9.77;4.37;;;6.10;49.00;;;;;;4972490;28;20242;-59
2024/01/15 09:49:16;;;;;;;6.07;3.93;;;6.10;49.00;;;;;;4967978;28;20894;-60
2024/01/15 09:51:42;;;;;;;13.80;4.67;;;6.20;49.00;;;;;;4964879;28;20447;-57
2024/01/15 09:54:08;;;;;;;5.93;4.23;;;6.20;48.60;;;;;;4983242;28;20825;-57
2024/01/15 09:56:35;;;;;;;9.30;5.00;;;6.30;48.60;;;;;;4964922;28;20513;-59
2024/01/15 09:59:01;;;;;;;9.83;5.60;;;6.40;48.40;;;;;;4963441;28;20435;-58
2024/01/15 10:01:28;;;;;;;7.07;4.30;;;6.40;48.70;;;;;;4964350;28;20929;-58
2024/01/15 10:03:55;;;;;;;7.97;4.23;;;6.40;48.90;;;;;;4967513;28;20439;-59
2024/01/15 10:06:21;;;;;;;8.03;4.10;;;6.20;48.40;;;;;;4960978;28;20451;-59
2024/01/15 10:08:48;;;;;;;11.40;4.50;;;6.30;48.60;;;;;;4972257;28;20455;-59
2024/01/15 10:11:14;;;;;;;8.60;3.80;;;6.30;48.40;;;;;;4962391;28;20545;-59
2024/01/15 10:13:40;;;;;;;10.83;4.37;;;6.50;48.30;;;;;;4970928;28;20526;-58
2024/01/15 10:16:06;;;;;;;7.97;4.40;;;6.70;48.10;;;;;;4962940;28;20585;-58
2024/01/15 10:18:32;;;;;;;9.90;4.30;;;6.70;48.00;;;;;;4967274;28;20187;-59
2024/01/15 10:20:58;;;;;;;9.63;4.23;;;6.90;47.90;;;;;;4966466;28;20466;-59
2024/01/15 10:23:24;;;;;;;9.23;3.53;;;6.70;47.60;;;;;;4967503;28;20449;-59
2024/01/15 10:25:51;;;;;;;6.00;3.40;;;6.80;47.70;;;;;;4963027;28;20512;-59
2024/01/15 10:28:19;;;;;;;6.50;3.70;;;6.70;48.10;;;;;;4965109;28;20977;-57
2024/01/15 10:30:44;;;;;;;10.83;4.40;;;6.70;47.90;;;;;;4965042;28;20515;-59
2024/01/15 10:33:11;;;;;;;18.27;4.67;;;6.90;47.80;;;;;;4962882;28;20451;-58
2024/01/15 10:35:37;;;;;;;7.87;4.57;;;7.00;47.50;;;;;;4964151;28;20211;-59
2024/01/15 10:38:05;;;;;;;14.77;4.33;;;7.00;47.20;;;;;;4991499;28;20481;-59
2024/01/15 10:40:31;;;;;;;9.03;4.53;;;7.00;47.40;;;;;;4964903;28;20447;-60
2024/01/15 10:42:57;;;;;;;5.70;3.27;;;6.80;47.40;;;;;;4978054;28;20427;-59
2024/01/15 10:45:23;;;;;;;9.10;3.77;;;6.90;47.60;;;;;;4962823;28;20808;-58
2024/01/15 10:47:49;;;;;;;5.70;3.60;;;6.80;47.40;;;;;;4966494;28;20856;-57
2024/01/15 10:50:15;;;;;;;14.03;5.50;;;6.60;47.80;;;;;;4966438;28;20447;-60
2024/01/15 10:52:43;;;;;;;6.30;3.80;;;6.70;48.00;;;;;;4973617;28;20513;-60
2024/01/15 10:55:09;;;;;;;5.07;3.63;;;6.60;48.00;;;;;;4965766;28;20664;-58
2024/01/15 10:57:36;;;;;;;5.80;3.70;;;6.60;48.10;;;;;;4962755;28;20841;-58
2024/01/15 11:00:05;;;;;;;6.10;3.40;;;6.70;48.20;;;;;;4965666;28;21003;-57
2024/01/15 11:02:35;;;;;;;6.50;3.73;;;6.90;47.90;;;;;;4987596;28;20869;-59
2024/01/15 11:05:01;;;;;;;6.67;3.97;;;6.90;47.70;;;;;;4965512;28;20434;-59
2024/01/15 11:07:27;;;;;;;9.23;4.20;;;6.80;47.50;;;;;;4965720;28;20508;-59
2024/01/15 11:09:52;;;;;;;7.50;3.80;;;6.90;47.90;;;;;;4965395;28;20192;-58
2024/01/15 11:12:19;;;;;;;6.47;3.73;;;6.70;48.00;;;;;;4964902;28;20442;-59
2024/01/15 11:14:49;;;;;;;3.97;3.03;;;7.00;48.20;;;;;;4965500;28;20188;-59
2024/01/15 11:17:17;;;;;;;5.20;3.10;;;6.90;48.10;;;;;;4963124;28;21005;-60
2024/01/15 11:19:43;;;;;;;4.10;3.70;;;6.80;48.50;;;;;;4967293;28;20443;-60
2024/01/15 11:22:10;;;;;;;4.33;3.47;;;6.90;48.70;;;;;;4969595;28;20553;-58
2024/01/15 11:24:40;;;;;;;5.00;3.07;;;6.90;48.60;;;;;;4967791;28;20450;-59
2024/01/15 11:27:07;;;;;;;5.30;3.27;;;6.70;49.20;;;;;;4970350;28;20455;-59
2024/01/15 11:29:37;;;;;;;7.03;3.80;;;6.20;50.20;;;;;;4969845;28;20435;-60
2024/01/15 11:32:04;;;;;;;6.27;3.70;;;5.90;51.20;;;;;;4968356;28;20446;-59
2024/01/15 11:34:51;;;;;;;5.77;3.20;;;5.90;51.60;;;;;;4966646;28;20486;-55
2024/01/15 11:37:18;;;;;;;5.80;3.50;;;5.70;52.70;;;;;;4960799;28;20497;-59
2024/01/15 11:39:44;;;;;;;4.90;3.77;;;5.60;54.40;;;;;;4967390;28;20492;-57
2024/01/15 11:42:11;;;;;;;7.73;3.40;;;5.70;54.70;;;;;;4965000;28;20837;-59
2024/01/15 11:44:38;;;;;;;5.80;3.80;;;6.00;54.90;;;;;;4977224;28;20556;-58
2024/01/15 11:47:04;;;;;;;5.63;3.60;;;6.10;54.50;;;;;;4966181;28;20832;-59
2024/01/15 11:50:00;;;;;;;6.73;4.93;;;6.10;54.40;;;;;;4969442;28;20435;-60
2024/01/15 11:52:30;;;;;;;5.63;4.13;;;6.10;54.40;;;;;;4971210;28;20988;-59
2024/01/15 11:55:14;;;;;;;8.90;5.17;;;6.20;54.40;;;;;;4977616;28;20455;-59
2024/01/15 11:57:39;;;;;;;6.20;3.87;;;6.30;54.20;;;;;;4967906;28;20474;-57
2024/01/15 12:00:06;;;;;;;7.20;4.60;;;6.20;54.10;;;;;;4971009;28;20509;-59
2024/01/15 12:02:32;;;;;;;7.73;5.20;;;6.00;54.40;;;;;;4966823;28;20191;-59
2024/01/15 12:04:58;;;;;;;7.87;4.10;;;5.90;54.80;;;;;;4974438;28;20445;-59
2024/01/15 12:07:23;;;;;;;7.37;4.03;;;5.90;55.00;;;;;;4967811;28;20447;-60
2024/01/15 12:09:49;;;;;;;5.77;4.23;;;5.70;55.50;;;;;;4968847;28;20191;-59
2024/01/15 12:12:24;;;;;;;5.80;4.00;;;5.80;56.00;;;;;;4968036;28;20549;-58
2024/01/15 12:14:49;;;;;;;7.60;4.50;;;5.40;56.10;;;;;;4967690;28;20193;-58
2024/01/15 12:17:16;;;;;;;6.80;4.00;;;5.60;57.30;;;;;;4966825;28;20483;-58
2024/01/15 12:19:43;;;;;;;7.27;4.80;;;5.70;58.10;;;;;;4969302;28;20180;-56
2024/01/15 12:22:09;;;;;;;7.47;4.23;;;5.50;58.70;;;;;;4968180;28;20514;-57
2024/01/15 12:24:35;;;;;;;6.97;4.00;;;5.60;59.00;;;;;;4968057;28;20447;-59
2024/01/15 12:27:01;;;;;;;10.73;4.57;;;5.60;58.80;;;;;;4966778;28;20461;-58
2024/01/15 12:29:26;;;;;;;6.20;4.20;;;5.70;58.30;;;;;;4967962;28;20446;-58
2024/01/15 12:31:53;;;;;;;6.80;4.80;;;5.70;58.00;;;;;;4966223;28;20198;-59
2024/01/15 12:34:19;;;;;;;7.30;4.37;;;5.90;58.50;;;;;;4968830;28;20205;-57
2024/01/15 12:36:46;;;;;;;6.77;4.20;;;5.60;57.50;;;;;;4966989;28;20493;-60
2024/01/15 12:39:13;;;;;;;6.77;4.20;;;5.60;58.40;;;;;;4976778;28;20513;-58
2024/01/15 12:41:39;;;;;;;7.10;4.23;;;5.50;58.50;;;;;;4967102;28;20442;-58